Time;durP1;ratioP1;P1;durP2;ratioP2;P2;SDS_P1;SDS_P2;PMS_P1;PMS_P2;Temp;Humidity;BMP_temperature;BMP_pressure;BME280_temperature;BME280_humidity;BME280_pressure;Samples;Min_cycle;Max_cycle;Signal;HPM_P1;HPM_P2
2022/08/07 00:01:06;;;;;;;2.03;1.13;;;;;;;13.77;62.28;101309.66;5082490;28;20052;-68
2022/08/07 00:03:34;;;;;;;3.08;1.27;;;;;;;13.78;62.02;101305.69;5071428;28;20056;-68
2022/08/07 00:06:02;;;;;;;2.45;1.35;;;;;;;13.75;61.76;101297.09;5077103;28;20044;-68
2022/08/07 00:08:29;;;;;;;2.08;1.13;;;;;;;13.69;62.55;101307.59;5070215;28;20056;-68
2022/08/07 00:10:57;;;;;;;1.98;1.23;;;;;;;13.62;62.70;101292.38;5069819;28;20049;-67
2022/08/07 00:13:25;;;;;;;2.92;1.42;;;;;;;13.59;62.45;101302.22;5069204;28;20079;-67
2022/08/07 00:15:54;;;;;;;1.98;1.25;;;;;;;13.57;62.88;101302.53;5061700;28;20056;-67
2022/08/07 00:18:26;;;;;;;3.13;1.27;;;;;;;13.58;62.77;101300.56;5070755;28;20056;-68
2022/08/07 00:20:55;;;;;;;2.47;1.67;;;;;;;13.54;63.14;101293.94;5071292;28;20057;-67
2022/08/07 00:23:23;;;;;;;1.83;1.20;;;;;;;13.51;62.96;101297.38;5073718;28;20063;-68
2022/08/07 00:25:50;;;;;;;2.58;1.30;;;;;;;13.50;62.91;101285.34;5094967;28;20392;-67
2022/08/07 00:28:18;;;;;;;2.65;1.35;;;;;;;13.48;63.16;101283.97;5094837;28;20066;-68
2022/08/07 00:30:45;;;;;;;1.95;1.45;;;;;;;13.43;63.22;101282.13;5095043;28;20395;-68
2022/08/07 00:33:14;;;;;;;2.95;1.38;;;;;;;13.37;63.42;101284.22;5089665;28;20049;-68
2022/08/07 00:35:41;;;;;;;2.63;1.40;;;;;;;13.39;63.02;101286.69;5092788;28;20047;-68
2022/08/07 00:38:08;;;;;;;3.15;1.40;;;;;;;13.38;63.49;101285.06;5094755;28;20056;-68
2022/08/07 00:40:37;;;;;;;2.10;1.65;;;;;;;13.33;63.54;101280.41;5094564;28;20048;-68
2022/08/07 00:43:05;;;;;;;2.00;1.40;;;;;;;13.34;63.52;101284.03;5092855;28;20051;-66
2022/08/07 00:45:32;;;;;;;2.40;1.60;;;;;;;13.31;63.40;101277.09;5054266;28;20053;-68
2022/08/07 00:47:59;;;;;;;2.17;1.60;;;;;;;13.27;63.74;101284.44;5054673;28;20390;-68
2022/08/07 00:50:28;;;;;;;2.17;1.50;;;;;;;13.23;63.38;101279.75;5054734;28;20053;-68
2022/08/07 00:52:55;;;;;;;3.13;1.60;;;;;;;13.20;63.75;101286.78;5054514;28;20049;-68
2022/08/07 00:55:23;;;;;;;2.83;1.50;;;;;;;13.15;63.67;101276.56;5090696;28;20052;-67
2022/08/07 00:57:51;;;;;;;2.67;1.50;;;;;;;13.07;63.92;101284.84;5094481;28;20400;-68
2022/08/07 01:00:19;;;;;;;2.53;1.45;;;;;;;13.05;63.82;101273.16;5094099;28;20047;-68
2022/08/07 01:02:46;;;;;;;2.22;1.50;;;;;;;13.05;64.10;101273.16;5094476;28;20055;-68
2022/08/07 01:05:15;;;;;;;3.05;1.65;;;;;;;13.06;63.93;101272.84;5092508;28;20052;-68
2022/08/07 01:07:44;;;;;;;4.13;1.80;;;;;;;13.00;64.05;101274.09;5094299;28;20069;-68
2022/08/07 01:10:11;;;;;;;2.88;1.70;;;;;;;12.97;63.83;101272.72;5094232;28;20059;-68
2022/08/07 01:12:41;;;;;;;2.17;1.52;;;;;;;12.97;64.00;101269.91;5094479;28;20058;-68
2022/08/07 01:15:09;;;;;;;3.78;1.60;;;;;;;12.93;64.35;101273.66;5089138;28;20056;-68
2022/08/07 01:17:37;;;;;;;1.90;1.60;;;;;;;12.81;64.69;101268.59;5089829;28;20048;-68
2022/08/07 01:20:08;;;;;;;1.83;1.50;;;;;;;12.82;64.59;101266.63;5093966;28;20056;-68
2022/08/07 01:22:39;;;;;;;2.50;1.40;;;;;;;12.73;64.87;101267.34;5094099;28;20052;-68
2022/08/07 01:25:09;;;;;;;2.13;1.50;;;;;;;12.74;64.20;101266.19;5092635;28;20416;-68
2022/08/07 01:27:36;;;;;;;;;;;;;;;12.65;64.87;101264.44;5094569;28;20052;-68
2022/08/07 01:30:05;;;;;;;1.83;1.40;;;;;;;12.65;64.80;101268.06;5093845;28;19927;-67
2022/08/07 01:32:33;;;;;;;2.15;1.73;;;;;;;12.64;64.67;101269.22;5094009;28;20410;-67
2022/08/07 01:35:00;;;;;;;2.33;1.45;;;;;;;12.61;64.74;101257.81;5085486;28;20052;-68
2022/08/07 01:37:28;;;;;;;2.47;1.52;;;;;;;12.58;64.71;101265.66;5093559;28;20413;-68
2022/08/07 01:39:58;;;;;;;3.85;1.60;;;;;;;12.53;65.01;101265.75;5093421;28;20052;-66
2022/08/07 01:42:26;;;;;;;2.85;1.73;;;;;;;12.52;64.83;101257.69;5093485;28;20055;-68
2022/08/07 01:44:54;;;;;;;2.22;1.80;;;;;;;12.51;65.03;101261.59;5091688;28;20048;-68
2022/08/07 01:47:22;;;;;;;1.90;1.60;;;;;;;12.43;65.69;101262.31;5093705;28;20071;-68
2022/08/07 01:49:49;;;;;;;3.55;1.83;;;;;;;12.43;65.86;101265.97;5093266;28;20396;-68
2022/08/07 01:52:18;;;;;;;3.58;1.80;;;;;;;12.43;65.54;101271.56;5093931;28;20052;-68
2022/08/07 01:54:46;;;;;;;2.47;1.73;;;;;;;12.43;65.80;101260.38;5091329;28;20109;-68
2022/08/07 01:57:20;;;;;;;2.70;1.60;;;;;;;12.42;65.68;101267.09;5093380;28;20044;-68
2022/08/07 01:59:54;;;;;;;3.17;1.60;;;;;;;12.41;65.63;101261.78;5090149;28;20063;-68
2022/08/07 02:02:27;;;;;;;2.42;1.88;;;;;;;12.39;65.82;101271.34;5090981;28;20052;-67
2022/08/07 02:05:01;;;;;;;3.95;1.98;;;;;;;12.36;65.71;101265.53;5093354;28;20059;-68
2022/08/07 02:07:34;;;;;;;2.50;1.70;;;;;;;12.35;65.89;101258.28;5087647;28;20051;-67
2022/08/07 02:10:04;;;;;;;2.67;1.80;;;;;;;12.31;65.98;101257.25;5093426;28;20408;-68
2022/08/07 02:12:40;;;;;;;2.78;1.75;;;;;;;12.32;65.83;101259.72;5092987;28;20062;-68
2022/08/07 02:15:10;;;;;;;2.47;1.90;;;;;;;12.29;65.91;101265.91;5092997;28;20063;-68
2022/08/07 02:17:39;;;;;;;3.03;1.90;;;;;;;12.26;66.21;101266.53;5090864;28;20059;-68
2022/08/07 02:20:09;;;;;;;3.17;1.80;;;;;;;12.16;65.87;101259.16;5092973;28;20052;-67
2022/08/07 02:22:39;;;;;;;4.78;1.80;;;;;;;12.17;66.15;101260.00;5092829;28;20059;-68
2022/08/07 02:25:07;;;;;;;;;;;;;;;12.15;66.09;101253.88;5093264;28;20498;-68
2022/08/07 02:27:37;;;;;;;2.08;1.60;;;;;;;12.14;66.02;101258.66;5090838;28;19924;-68
2022/08/07 02:30:05;;;;;;;3.10;1.73;;;;;;;12.11;66.50;101253.66;5092964;28;20051;-68
2022/08/07 02:32:36;;;;;;;3.45;1.63;;;;;;;12.07;65.92;101260.16;5092881;28;20058;-68
2022/08/07 02:35:06;;;;;;;2.35;1.85;;;;;;;12.01;66.52;101259.44;5054045;28;20060;-67
2022/08/07 02:37:36;;;;;;;2.63;1.83;;;;;;;12.01;66.38;101259.44;5070697;28;20052;-68
2022/08/07 02:40:06;;;;;;;4.18;1.60;;;;;;;12.02;66.25;101255.50;5092142;28;20074;-67
2022/08/07 02:42:34;;;;;;;2.92;2.00;;;;;;;11.99;66.23;101256.13;5092682;28;20048;-67
2022/08/07 02:45:06;;;;;;;2.20;1.73;;;;;;;11.96;66.08;101245.53;5092539;28;20403;-67
2022/08/07 02:47:34;;;;;;;3.35;1.90;;;;;;;11.93;66.00;101257.34;5081171;28;20052;-68
2022/08/07 02:50:02;;;;;;;2.65;1.70;;;;;;;11.89;66.46;101256.28;5071078;28;20055;-67
2022/08/07 02:52:36;;;;;;;3.00;1.98;;;;;;;11.89;66.29;101248.72;5072202;28;20176;-68
2022/08/07 02:55:08;;;;;;;2.45;1.50;;;;;;;11.88;66.76;101254.59;5072587;28;20053;-67
2022/08/07 02:57:38;;;;;;;2.05;1.67;;;;;;;11.87;66.68;101244.56;5078035;28;20051;-64
2022/08/07 03:00:09;;;;;;;1.98;1.50;;;;;;;11.85;66.67;101238.44;5092154;28;20056;-64
2022/08/07 03:02:37;;;;;;;4.47;1.90;;;;;;;11.88;66.89;101246.19;5092451;28;20059;-65
2022/08/07 03:05:06;;;;;;;4.82;1.83;;;;;;;11.87;66.99;101244.56;5092188;28;20063;-65
2022/08/07 03:07:34;;;;;;;2.30;1.70;;;;;;;11.86;66.95;101240.91;5087710;28;20048;-65
2022/08/07 03:10:02;;;;;;;2.17;1.65;;;;;;;11.83;67.08;101243.50;5092156;28;20407;-64
2022/08/07 03:12:30;;;;;;;2.72;1.90;;;;;;;11.82;67.31;101250.22;5092336;28;20052;-65
2022/08/07 03:14:58;;;;;;;4.57;1.98;;;;;;;11.78;67.44;101248.03;5092003;28;20066;-64
2022/08/07 03:17:27;;;;;;;2.65;1.70;;;;;;;11.81;67.15;101245.78;5087689;28;20044;-65
2022/08/07 03:19:56;;;;;;;3.63;2.17;;;;;;;11.77;67.08;101243.56;5092406;28;20056;-64
2022/08/07 03:22:24;;;;;;;3.72;2.67;;;;;;;11.78;66.45;101250.84;5091963;28;20388;-65
2022/08/07 03:24:52;;;;;;;2.83;2.25;;;;;;;11.73;66.88;101248.09;5092174;28;20075;-66
2022/08/07 03:27:21;;;;;;;3.42;1.80;;;;;;;11.66;66.84;101246.84;5090105;28;20048;-64
2022/08/07 03:29:50;;;;;;;3.37;2.27;;;;;;;11.64;67.18;101247.13;5092061;28;20056;-65
2022/08/07 03:32:24;;;;;;;2.88;2.05;;;;;;;11.57;67.19;101243.91;5091841;28;20415;-65
2022/08/07 03:34:57;;;;;;;3.47;1.67;;;;;;;11.56;67.70;101242.25;5057320;28;20067;-66
2022/08/07 03:37:26;;;;;;;3.00;2.17;;;;;;;11.52;67.82;101244.78;5069045;28;20056;-65
2022/08/07 03:39:54;;;;;;;4.63;1.98;;;;;;;11.51;67.60;101239.53;5092013;28;20052;-65
2022/08/07 03:42:22;;;;;;;3.50;2.33;;;;;;;11.50;67.61;101237.88;5091951;28;20068;-65
2022/08/07 03:44:50;;;;;;;3.13;2.10;;;;;;;11.50;67.72;101235.06;5092106;28;20436;-64
2022/08/07 03:47:17;;;;;;;4.07;2.08;;;;;;;11.47;67.60;101238.50;5087175;28;20075;-64
2022/08/07 03:49:45;;;;;;;2.45;2.08;;;;;;;11.47;67.28;101239.31;5092096;28;20051;-64
2022/08/07 03:52:15;;;;;;;4.55;2.20;;;;;;;11.47;67.20;101244.06;5091877;28;20048;-65
2022/08/07 03:54:42;;;;;;;3.33;2.00;;;;;;;11.45;67.32;101240.75;5091599;28;20052;-65
2022/08/07 03:57:11;;;;;;;4.57;2.08;;;;;;;11.40;67.39;101250.00;5085808;28;20062;-64
2022/08/07 03:59:40;;;;;;;2.33;1.95;;;;;;;11.41;66.98;101234.94;5094596;28;20448;-64
2022/08/07 04:02:08;;;;;;;3.03;2.28;;;;;;;11.33;67.35;101242.00;5095684;28;20063;-66
2022/08/07 04:04:35;;;;;;;4.32;2.25;;;;;;;11.30;67.58;101234.25;5095600;28;20515;-66
2022/08/07 04:07:03;;;;;;;2.22;1.98;;;;;;;11.30;67.49;101234.25;5091211;28;20484;-64
2022/08/07 04:09:32;;;;;;;3.38;2.10;;;;;;;11.31;67.72;101238.69;5094241;28;20392;-65
2022/08/07 04:12:00;;;;;;;3.30;1.92;;;;;;;11.27;67.69;101228.44;5095715;28;20063;-65
2022/08/07 04:14:28;;;;;;;2.88;2.20;;;;;;;11.27;67.53;101234.84;5095451;28;20056;-65
2022/08/07 04:16:55;;;;;;;2.40;1.88;;;;;;;11.28;67.78;101230.94;5090757;28;20068;-65
2022/08/07 04:19:24;;;;;;;3.13;2.10;;;;;;;11.27;67.59;101226.47;5095348;28;20047;-65
2022/08/07 04:21:53;;;;;;;4.00;2.05;;;;;;;11.30;67.39;101234.25;5095030;28;20052;-65
2022/08/07 04:24:21;;;;;;;3.25;2.28;;;;;;;11.17;67.89;101233.03;5095502;28;20131;-64
2022/08/07 04:26:50;;;;;;;3.20;2.22;;;;;;;11.25;67.45;101225.13;5093978;28;20052;-65
2022/08/07 04:29:18;;;;;;;5.93;3.42;;;;;;;11.17;67.59;101235.81;5095484;28;20059;-65
2022/08/07 04:31:45;;;;;;;3.38;2.17;;;;;;;11.20;67.80;101239.16;5095155;28;20051;-64
2022/08/07 04:34:13;;;;;;;3.80;2.40;;;;;;;11.23;67.77;101244.94;5070569;28;20053;-65
2022/08/07 04:36:41;;;;;;;2.42;1.88;;;;;;;11.28;68.29;101233.72;5057670;28;20492;-64
2022/08/07 04:39:09;;;;;;;2.33;2.00;;;;;;;11.32;68.35;101237.56;5093722;28;20048;-65
2022/08/07 04:41:36;;;;;;;3.55;2.05;;;;;;;11.22;68.71;101243.28;5094771;28;20052;-64
2022/08/07 04:44:06;;;;;;;2.90;2.05;;;;;;;11.31;68.85;101237.88;5094934;28;20052;-65
2022/08/07 04:46:41;;;;;;;3.42;2.65;;;;;;;11.38;68.54;101249.47;5093205;28;20407;-64
2022/08/07 04:49:16;;;;;;;2.63;2.15;;;;;;;11.45;68.65;101237.97;5094748;28;20416;-64
2022/08/07 04:51:51;;;;;;;2.15;1.90;;;;;;;11.44;68.24;101239.06;5093437;28;20056;-65
2022/08/07 04:54:31;;;;;;;2.95;2.08;;;;;;;11.49;68.40;101245.41;5094754;28;20056;-65
2022/08/07 04:57:07;;;;;;;3.38;2.15;;;;;;;11.49;67.92;101242.63;5092070;28;20044;-65
2022/08/07 04:59:43;;;;;;;3.17;2.33;;;;;;;11.57;68.26;101243.91;5094098;28;20056;-65
2022/08/07 05:02:17;;;;;;;4.13;2.10;;;;;;;11.62;68.01;101248.59;5093707;28;20052;-65
2022/08/07 05:04:56;;;;;;;3.03;1.90;;;;;;;11.66;68.18;101242.09;5094359;28;20135;-65
2022/08/07 05:07:32;;;;;;;2.92;2.10;;;;;;;11.70;67.99;101243.16;5090725;28;20063;-65
2022/08/07 05:10:06;;;;;;;3.15;2.03;;;;;;;11.78;67.61;101238.84;5093595;28;20058;-65
2022/08/07 05:12:39;;;;;;;3.53;2.20;;;;;;;11.87;67.98;101247.34;5094474;28;20048;-65
2022/08/07 05:15:16;;;;;;;2.28;1.70;;;;;;;11.93;67.87;101255.38;5094062;28;20063;-63
2022/08/07 05:17:46;;;;;;;3.92;2.10;;;;;;;12.02;67.87;101244.31;5092671;28;20051;-65
2022/08/07 05:20:16;;;;;;;3.85;2.25;;;;;;;12.06;67.70;101244.56;5093646;28;20067;-65
2022/08/07 05:22:46;;;;;;;3.67;2.35;;;;;;;12.13;67.56;101250.56;5094155;28;20496;-64
2022/08/07 05:25:18;;;;;;;3.80;2.45;;;;;;;12.07;68.10;101255.41;5093789;28;20058;-63
2022/08/07 05:27:47;;;;;;;3.38;2.53;;;;;;;12.19;67.76;101252.97;5092016;28;20048;-63
2022/08/07 05:30:17;;;;;;;4.90;2.38;;;;;;;12.28;68.00;101257.84;5093390;28;20071;-64
2022/08/07 05:32:46;;;;;;;;;;;;;;;12.31;68.12;101248.88;5093988;28;20054;-64
2022/08/07 05:35:14;;;;;;;4.35;2.42;;;;;;;12.43;68.08;101253.94;5085509;28;19927;-63
2022/08/07 05:37:42;;;;;;;3.33;2.47;;;;;;;12.53;67.87;101259.34;5093681;28;20052;-64
2022/08/07 05:40:11;;;;;;;3.10;2.58;;;;;;;12.53;67.81;101265.75;5093259;28;20048;-63
2022/08/07 05:42:39;;;;;;;2.47;2.27;;;;;;;12.68;67.23;101266.59;5093414;28;20405;-63
2022/08/07 05:45:07;;;;;;;3.35;2.83;;;;;;;12.77;66.74;101256.38;5091107;28;20403;-63
2022/08/07 05:47:37;;;;;;;3.58;2.90;;;;;;;12.84;66.45;101259.56;5090615;28;20445;-64
2022/08/07 05:50:05;;;;;;;3.53;2.70;;;;;;;12.94;66.68;101252.97;5093142;28;20055;-64
2022/08/07 05:52:33;;;;;;;3.13;2.83;;;;;;;13.04;66.16;101261.13;5093172;28;20056;-65
2022/08/07 05:55:01;;;;;;;4.28;2.60;;;;;;;13.16;66.08;101260.59;5090068;28;20047;-64
2022/08/07 05:57:30;;;;;;;3.63;2.35;;;;;;;13.26;65.74;101260.38;5093253;28;20044;-63
2022/08/07 05:59:59;;;;;;;2.83;2.47;;;;;;;13.34;65.30;101270.84;5092573;28;20059;-63
2022/08/07 06:02:28;;;;;;;2.95;2.65;;;;;;;13.47;65.57;101262.75;5093009;28;20047;-65
2022/08/07 06:05:02;;;;;;;5.88;3.00;;;;;;;13.52;65.23;101268.22;5091119;28;20054;-63
2022/08/07 06:07:30;;;;;;;3.13;2.50;;;;;;;13.62;64.94;101269.97;5092981;28;20052;-64
2022/08/07 06:09:57;;;;;;;3.25;2.83;;;;;;;13.70;64.83;101267.25;5092749;28;20059;-63
2022/08/07 06:12:25;;;;;;;3.35;2.53;;;;;;;13.81;64.72;101263.03;5092700;28;20051;-64
2022/08/07 06:14:52;;;;;;;2.70;2.45;;;;;;;13.88;64.77;101262.63;5090692;28;20052;-64
2022/08/07 06:17:20;;;;;;;3.20;2.47;;;;;;;13.97;64.62;101262.69;5092660;28;20052;-64
2022/08/07 06:19:48;;;;;;;5.22;2.75;;;;;;;14.06;64.56;101259.94;5092634;28;20412;-64
2022/08/07 06:22:18;;;;;;;3.15;2.38;;;;;;;14.21;64.08;101274.41;5091522;28;20448;-63
2022/08/07 06:24:46;;;;;;;2.92;2.40;;;;;;;14.34;63.88;101269.00;5089591;28;20059;-64
2022/08/07 06:27:20;;;;;;;2.85;2.33;;;;;;;14.48;63.73;101266.13;5091707;28;20055;-64
2022/08/07 06:29:48;;;;;;;4.13;2.72;;;;;;;14.58;62.75;101265.91;5092673;28;20052;-64
2022/08/07 06:32:15;;;;;;;3.35;2.42;;;;;;;14.65;62.47;101266.25;5092623;28;20052;-64
2022/08/07 06:34:42;;;;;;;2.35;1.90;;;;;;;14.82;62.42;101266.34;5079589;28;20052;-64
2022/08/07 06:37:10;;;;;;;3.10;2.20;;;;;;;14.93;62.31;101266.03;5088422;28;20052;-63
2022/08/07 06:39:39;;;;;;;4.22;2.75;;;;;;;15.07;61.86;101261.13;5090613;28;20059;-64
2022/08/07 06:42:10;;;;;;;2.78;2.42;;;;;;;15.22;61.18;101260.69;5092545;28;20074;-63
2022/08/07 06:44:39;;;;;;;3.22;2.20;;;;;;;15.33;61.26;101252.78;5092258;28;20435;-63
2022/08/07 06:47:07;;;;;;;3.08;2.40;;;;;;;15.47;60.63;101255.44;5090417;28;20052;-63
2022/08/07 06:49:34;;;;;;;3.78;2.30;;;;;;;15.49;60.54;101255.94;5091957;28;20043;-63
2022/08/07 06:52:03;;;;;;;3.92;2.25;;;;;;;15.69;60.20;101250.84;5092299;28;20070;-64
2022/08/07 06:54:31;;;;;;;5.00;2.80;;;;;;;15.76;59.75;101256.81;5089458;28;20047;-64
2022/08/07 06:57:01;;;;;;;3.25;2.35;;;;;;;15.87;59.32;101241.25;5091957;28;20044;-64
2022/08/07 06:59:32;;;;;;;3.42;2.20;;;;;;;15.92;59.27;101232.69;5091822;28;20059;-63
2022/08/07 07:02:00;;;;;;;3.72;2.55;;;;;;;16.01;59.41;101239.09;5090343;28;20044;-63
2022/08/07 07:04:30;;;;;;;3.27;2.20;;;;;;;16.16;59.03;101234.94;5091902;28;20056;-64
2022/08/07 07:06:58;;;;;;;2.58;2.10;;;;;;;16.30;58.78;101234.75;5092221;28;20067;-64
2022/08/07 07:09:26;;;;;;;2.72;2.20;;;;;;;16.34;59.00;101232.13;5092214;28;20055;-63
2022/08/07 07:12:03;;;;;;;5.75;2.00;;;;;;;16.49;58.30;101234.38;5089458;28;20520;-64
2022/08/07 07:14:37;;;;;;;3.38;2.10;;;;;;;16.66;57.91;101229.84;5092159;28;20052;-64
2022/08/07 07:17:10;;;;;;;3.65;2.25;;;;;;;16.80;57.83;101236.94;5092123;28;20491;-64
2022/08/07 07:19:44;;;;;;;2.60;1.75;;;;;;;16.96;56.99;101236.34;5091974;28;20052;-64
2022/08/07 07:22:12;;;;;;;2.78;1.50;;;;;;;16.98;56.79;101226.38;5090569;28;20047;-65
2022/08/07 07:24:41;;;;;;;2.00;1.60;;;;;;;17.12;56.50;101230.97;5092222;28;20048;-64
2022/08/07 07:27:11;;;;;;;3.15;1.73;;;;;;;17.32;56.14;101224.53;5091729;28;20047;-64
2022/08/07 07:29:43;;;;;;;4.28;1.95;;;;;;;17.64;55.26;101231.41;5091872;28;20060;-64
2022/08/07 07:32:19;;;;;;;2.30;1.73;;;;;;;18.31;54.00;101225.00;5090749;28;20043;-63
2022/08/07 07:34:49;;;;;;;2.55;1.35;;;;;;;19.19;51.99;101228.38;5078963;28;20048;-64
2022/08/07 07:37:16;;;;;;;;;;;;;;;20.14;50.42;101225.16;5076472;28;20059;-64
2022/08/07 07:39:45;;;;;;;1.65;1.30;;;;;;;20.61;48.83;101216.78;5075531;28;19928;-64
2022/08/07 07:42:15;;;;;;;2.42;1.33;;;;;;;21.44;46.46;101222.44;5078171;28;20051;-63
2022/08/07 07:44:46;;;;;;;3.45;1.38;;;;;;;22.24;43.99;101211.56;5072503;28;20055;-64
2022/08/07 07:47:15;;;;;;;2.45;1.20;;;;;;;22.94;42.50;101209.53;5095730;28;20056;-64
2022/08/07 07:49:45;;;;;;;2.00;1.20;;;;;;;23.90;40.29;101204.44;5095607;28;20063;-64
2022/08/07 07:52:15;;;;;;;2.22;1.25;;;;;;;24.65;38.70;101198.72;5092501;28;20051;-64
2022/08/07 07:54:45;;;;;;;1.75;1.10;;;;;;;25.41;37.83;101197.25;5095672;28;20052;-64
2022/08/07 07:57:16;;;;;;;1.67;1.00;;;;;;;26.47;36.03;101194.34;5087843;28;20051;-63
2022/08/07 07:59:44;;;;;;;2.30;1.17;;;;;;;27.45;34.13;101182.47;5072348;28;20056;-64
2022/08/07 08:02:14;;;;;;;1.73;1.00;;;;;;;28.32;32.93;101182.84;5074653;28;20064;-64
2022/08/07 08:04:44;;;;;;;1.85;1.00;;;;;;;28.95;31.24;101186.44;5071055;28;20522;-64
2022/08/07 08:07:13;;;;;;;1.70;0.98;;;;;;;29.86;29.74;101178.50;5068603;28;20488;-65
2022/08/07 08:09:42;;;;;;;1.88;1.20;;;;;;;30.94;28.83;101174.78;5072742;28;20052;-65
2022/08/07 08:12:09;;;;;;;3.20;1.02;;;;;;;31.76;27.50;101172.34;5073101;28;20055;-65
2022/08/07 08:14:38;;;;;;;3.22;1.70;;;;;;;32.67;26.12;101176.88;5076982;28;20052;-64
2022/08/07 08:17:07;;;;;;;;;;;;;;;32.89;26.23;101166.41;5074066;28;20048;-65
2022/08/07 08:19:37;;;;;;;3.67;1.20;;;;;;;33.67;24.97;101165.50;5073151;28;19924;-65
2022/08/07 08:27:56;;;;;;;2.40;1.90;;;;;;;35.92;22.18;101159.00;5035046;28;20145;-64
2022/08/07 08:30:26;;;;;;;2.90;1.75;;;;;;;36.56;21.56;101154.78;5055610;28;20503;-65
2022/08/07 08:32:55;;;;;;;2.50;1.52;;;;;;;37.40;20.68;101159.44;5072455;28;20044;-65
2022/08/07 08:35:26;;;;;;;2.22;2.03;;;;;;;37.89;19.96;101158.38;5073869;28;20059;-65
2022/08/07 08:37:57;;;;;;;2.95;1.05;;;;;;;38.45;19.61;101149.41;5069628;28;20059;-65
2022/08/07 08:40:31;;;;;;;2.63;1.40;;;;;;;39.11;18.66;101149.34;5071579;28;20048;-64
2022/08/07 08:43:08;;;;;;;2.42;2.22;;;;;;;39.72;17.97;101153.97;5071596;28;20520;-66
2022/08/07 08:45:41;;;;;;;1.92;1.23;;;;;;;40.64;16.39;101138.22;5072053;28;20067;-65
2022/08/07 08:48:22;;;;;;;1.42;1.30;;;;;;;41.18;15.20;101138.69;5072759;28;20048;-64
2022/08/07 08:50:55;;;;;;;2.75;2.33;;;;;;;42.15;14.43;101140.41;5077307;28;20039;-65
2022/08/07 08:53:30;;;;;;;2.00;1.50;;;;;;;42.04;14.29;101143.25;5069477;28;20048;-66
2022/08/07 08:56:02;;;;;;;2.60;1.38;;;;;;;43.00;12.87;101149.72;5073444;28;20060;-65
2022/08/07 08:58:36;;;;;;;1.50;1.20;;;;;;;43.33;11.79;101131.44;5065528;28;20044;-65
2022/08/07 09:01:11;;;;;;;1.77;1.67;;;;;;;43.91;11.57;101128.03;5074387;28;20045;-66
2022/08/07 09:03:49;;;;;;;3.08;2.78;;;;;;;43.96;10.50;101130.97;5072363;28;20059;-65
2022/08/07 09:06:29;;;;;;;2.78;2.50;;;;;;;45.06;10.57;101125.88;5066909;28;20056;-65
2022/08/07 09:09:03;;;;;;;2.65;1.58;;;;;;;46.52;9.66;101131.97;5072421;28;20048;-64
2022/08/07 09:11:38;;;;;;;1.75;1.65;;;;;;;46.99;8.91;101122.78;5070507;28;20396;-65
2022/08/07 09:14:12;;;;;;;2.08;1.88;;;;;;;47.37;8.71;101122.78;5072783;28;20055;-66
2022/08/07 09:17:00;;;;;;;2.75;2.55;;;;;;;47.67;8.49;101116.72;5072585;28;20386;-65
2022/08/07 09:19:46;;;;;;;4.93;2.08;;;;;;;48.08;8.74;101102.84;5070194;28;20485;-65
2022/08/07 09:22:40;;;;;;;1.85;1.58;;;;;;;48.55;8.61;101114.00;5072882;28;20056;-66
2022/08/07 09:25:11;;;;;;;2.25;1.35;;;;;;;48.40;8.89;101113.81;5072478;28;20063;-64
2022/08/07 09:27:45;;;;;;;1.67;1.35;;;;;;;48.60;8.47;101107.19;5072146;28;20074;-65
2022/08/07 09:30:16;;;;;;;2.33;2.13;;;;;;;48.98;7.99;101103.97;5072988;28;20045;-65
2022/08/07 09:33:08;;;;;;;2.20;1.75;;;;;;;48.37;8.19;101107.66;5071583;28;20511;-65
2022/08/07 09:35:46;;;;;;;2.53;2.33;;;;;;;49.04;8.16;101101.72;5065945;28;20048;-64
2022/08/07 09:38:22;;;;;;;2.80;2.53;;;;;;;49.39;7.43;101096.56;5071595;28;20481;-65
2022/08/07 09:41:07;;;;;;;2.05;1.77;;;;;;;49.27;8.10;101095.22;5075162;28;20158;-65
2022/08/07 09:43:53;;;;;;;2.00;1.50;;;;;;;49.14;7.32;101104.94;5071229;28;20056;-65
2022/08/07 09:46:32;;;;;;;2.55;2.42;;;;;;;49.75;7.07;101104.84;5074809;28;20226;-63
2022/08/07 09:49:14;;;;;;;1.50;1.30;;;;;;;49.74;8.21;101103.25;5071282;28;20083;-64
2022/08/07 09:51:55;;;;;;;2.08;1.88;;;;;;;49.59;6.86;101097.97;5071154;28;20044;-65
2022/08/07 09:54:29;;;;;;;1.98;1.88;;;;;;;49.44;7.76;101095.66;5063508;28;20064;-64
2022/08/07 09:57:20;;;;;;;2.08;1.85;;;;;;;49.80;6.85;101083.16;5078603;28;20048;-64
2022/08/07 10:00:03;;;;;;;2.05;1.95;;;;;;;50.15;7.49;101089.75;5067542;28;20068;-63
2022/08/07 10:02:52;;;;;;;3.38;3.17;;;;;;;50.24;6.97;101092.22;5068412;28;20060;-63
2022/08/07 10:05:45;;;;;;;2.78;2.40;;;;;;;50.48;6.71;101075.38;5061835;28;20053;-63
2022/08/07 10:08:34;;;;;;;2.53;2.33;;;;;;;49.95;7.64;101080.31;5058500;28;20480;-63
2022/08/07 10:11:09;;;;;;;3.25;2.70;;;;;;;50.12;7.14;101073.94;5062190;28;20053;-64
2022/08/07 10:13:47;;;;;;;3.00;2.78;;;;;;;50.14;6.83;101082.25;5068496;28;20071;-64
2022/08/07 10:16:38;;;;;;;2.08;1.98;;;;;;;50.29;7.25;101075.63;5057924;28;20044;-64
2022/08/07 10:19:26;;;;;;;2.10;2.00;;;;;;;50.01;6.96;101073.47;5064099;28;20049;-63
2022/08/07 10:22:22;;;;;;;2.78;2.58;;;;;;;49.36;7.56;101065.19;5067878;28;20049;-64
2022/08/07 10:25:12;;;;;;;4.90;2.72;;;;;;;49.50;7.69;101068.84;5052541;28;20053;-64
2022/08/07 10:27:53;;;;;;;3.03;2.83;;;;;;;48.12;8.08;101074.56;5050607;28;20488;-64
2022/08/07 10:30:27;;;;;;;2.40;2.13;;;;;;;47.83;8.30;101073.47;5070674;28;20120;-63
2022/08/07 10:33:28;;;;;;;1.95;1.85;;;;;;;47.72;8.46;101079.59;5090864;28;20044;-64
2022/08/07 10:36:12;;;;;;;2.08;1.88;;;;;;;48.20;8.39;101065.00;5070536;28;20428;-64
2022/08/07 10:38:49;;;;;;;2.95;2.75;;;;;;;48.20;8.04;101065.81;5072185;28;20063;-64
2022/08/07 10:41:27;;;;;;;2.40;2.10;;;;;;;48.09;8.10;101057.16;5069657;28;20044;-64
2022/08/07 10:44:12;;;;;;;2.00;1.90;;;;;;;47.63;8.52;101054.25;5089983;28;20059;-64
2022/08/07 10:46:45;;;;;;;2.30;2.15;;;;;;;47.57;8.71;101062.41;5071858;28;20056;-65
2022/08/07 10:49:19;;;;;;;3.45;1.73;;;;;;;48.46;7.56;101049.44;5071556;28;20045;-63
2022/08/07 10:51:54;;;;;;;1.52;1.42;;;;;;;47.62;8.08;101049.69;5085218;28;20052;-64
2022/08/07 10:54:32;;;;;;;2.60;2.33;;;;;;;48.03;7.84;101051.38;5090415;28;20059;-63
2022/08/07 10:57:10;;;;;;;2.55;2.35;;;;;;;47.33;8.47;101040.50;5072032;28;20056;-63
2022/08/07 11:00:04;;;;;;;2.38;2.17;;;;;;;48.10;8.15;101044.78;5071571;28;20056;-63
2022/08/07 11:02:40;;;;;;;2.40;2.20;;;;;;;48.22;8.28;101038.63;5090184;28;20055;-63
2022/08/07 11:05:16;;;;;;;2.13;1.92;;;;;;;48.01;7.96;101030.47;5086896;28;20048;-63
2022/08/07 11:07:55;;;;;;;2.50;2.33;;;;;;;47.88;7.97;101033.38;5071493;28;20075;-63
2022/08/07 11:10:29;;;;;;;1.95;1.85;;;;;;;48.26;7.65;101022.19;5069256;28;20492;-63
2022/08/07 11:13:02;;;;;;;2.10;1.90;;;;;;;48.60;7.54;101014.72;5090532;28;20368;-63
2022/08/07 11:15:34;;;;;;;2.55;2.28;;;;;;;48.76;7.41;101016.53;5086718;28;20370;-63
2022/08/07 11:18:05;;;;;;;2.72;2.53;;;;;;;48.86;8.38;101013.91;5072049;28;20063;-63
2022/08/07 11:20:43;;;;;;;2.60;2.40;;;;;;;49.02;7.83;101009.75;5072824;28;20052;-63
2022/08/07 11:23:14;;;;;;;;;;;;;;;49.31;7.90;101006.88;5087023;28;20051;-63
2022/08/07 11:25:51;;;;;;;2.72;2.53;;;;;;;49.13;7.50;101015.41;5087744;28;19921;-63
2022/08/07 11:28:25;;;;;;;2.05;1.85;;;;;;;48.35;7.93;101015.03;5071760;28;20049;-64
2022/08/07 11:30:59;;;;;;;2.13;1.92;;;;;;;48.57;8.33;101001.88;5071565;28;20060;-63
2022/08/07 11:33:41;;;;;;;2.53;1.50;;;;;;;48.98;7.61;101009.28;5073629;28;20052;-64
2022/08/07 11:36:18;;;;;;;2.28;1.85;;;;;;;48.34;8.02;101008.31;5070310;28;20059;-64
2022/08/07 11:38:54;;;;;;;2.08;1.98;;;;;;;48.04;7.88;100999.00;5071714;28;20056;-63
2022/08/07 11:41:31;;;;;;;1.95;1.85;;;;;;;47.83;8.06;101001.81;5077300;28;20396;-63
2022/08/07 11:44:00;;;;;;;;;;;;;;;46.96;8.49;100997.13;5072208;28;20048;-64
2022/08/07 11:46:43;;;;;;;2.75;2.55;;;;;;;47.60;8.54;100992.56;5071080;28;19924;-63
2022/08/07 11:49:25;;;;;;;3.33;3.03;;;;;;;47.21;8.97;100997.00;5089710;28;20056;-64
2022/08/07 11:52:08;;;;;;;2.80;2.00;;;;;;;47.20;8.54;100995.41;5085064;28;20048;-63
2022/08/07 11:54:51;;;;;;;2.55;2.03;;;;;;;47.09;9.24;101000.09;5071459;28;20053;-64
2022/08/07 11:57:28;;;;;;;5.20;3.17;;;;;;;47.49;8.72;101005.38;5059193;28;20071;-63